Anchorage, Alaska
Current Conditions -  °F | °C
As of 1:53 AM on Friday 28 Nov 2014 (Local Time) from PANC Reporting Station
Haze Haze  
Wind Chill: 21°   Ceiling: 1000
Heat Index: 21°   Visibility: 5mi
Dew Point: 19°   Wind: 0mph
Humidity: 92%   Direction: NA
Pressure: 30.19"   Gusts: NA
Location:  61.16°N, 150.01°W
Report Text: PANC 281053Z 00000KT 5SM BR SCT005 OVC010 M06/M07 A3019 RMK AO2 SLP226 T10611072
Loading
Personal Weather Stations






























Interactive Weather Map New forecast layout! Learn more

10-Day Weather Forecast

Advertisements
Track Severe Weather on mobile